Time;durP1;ratioP1;P1;durP2;ratioP2;P2;SDS_P1;SDS_P2;PMS_P1;PMS_P2;Temp;Humidity;BMP_temperature;BMP_pressure;BME280_temperature;BME280_humidity;BME280_pressure;Samples;Min_cycle;Max_cycle;Signal;HPM_P1;HPM_P2
2021/11/07 00:04:32;;;;;;;16.43;12.10;;;;;;;10.26;83.11;101355.00;5035331;28;20182;-77
2021/11/07 00:12:00;;;;;;;14.30;12.00;;;;;;;10.21;83.23;101338.63;5034490;28;20202;-76
2021/11/07 00:14:27;;;;;;;16.03;13.87;;;;;;;10.18;83.73;101330.00;5033104;28;20192;-77
2021/11/07 00:16:54;;;;;;;14.50;13.00;;;;;;;10.16;83.86;101329.09;5032567;28;20190;-76
2021/11/07 00:24:36;;;;;;;17.60;15.80;;;;;;;9.99;85.97;101312.34;5015392;28;20178;-79
2021/11/07 00:27:19;;;;;;;18.53;15.80;;;;;;;9.93;86.18;101302.81;5023866;28;20630;-79
2021/11/07 00:30:37;;;;;;;18.60;16.73;;;;;;;9.90;87.46;101283.97;5033050;28;20249;-79
2021/11/07 00:37:49;;;;;;;19.93;17.33;;;;;;;9.80;87.65;101262.34;5028874;28;20194;-81
2021/11/07 00:40:31;;;;;;;17.70;15.93;;;;;;;9.81;87.75;101256.41;5029554;28;20683;-80
2021/11/07 00:45:46;;;;;;;19.13;17.10;;;;;;;9.79;88.19;101245.28;5031982;28;20183;-79
2021/11/07 00:51:04;;;;;;;17.53;15.77;;;;;;;9.79;88.15;101236.72;5031726;28;20208;-80
2021/11/07 00:56:44;;;;;;;15.97;13.97;;;;;;;9.82;88.28;101224.88;5032434;28;20189;-81
2021/11/07 00:59:08;;;;;;;15.17;13.53;;;;;;;9.84;87.16;101243.72;5023887;28;20199;-80
2021/11/07 01:01:38;;;;;;;14.40;13.00;;;;;;;9.84;87.98;101223.25;5031865;28;20197;-81
2021/11/07 01:04:05;;;;;;;14.43;12.70;;;;;;;9.83;87.66;101206.19;5032841;28;20209;-78
2021/11/07 01:06:32;;;;;;;14.83;13.40;;;;;;;9.80;88.24;101208.66;5032306;28;20183;-78
2021/11/07 01:09:00;;;;;;;13.70;12.40;;;;;;;9.78;88.02;101205.19;5032001;28;20207;-82
2021/11/07 01:11:25;;;;;;;13.60;12.37;;;;;;;9.79;88.84;101191.56;5030818;28;20222;-79
2021/11/07 01:13:51;;;;;;;14.03;12.53;;;;;;;9.78;88.47;101194.09;5032367;28;20695;-77
2021/11/07 01:16:17;;;;;;;13.47;12.00;;;;;;;9.77;88.32;101200.88;5032475;28;20237;-79
2021/11/07 01:18:42;;;;;;;12.97;11.67;;;;;;;9.81;88.25;101194.19;5015866;28;20185;-78
2021/11/07 01:21:11;;;;;;;11.90;10.73;;;;;;;9.82;88.39;101176.28;5031653;28;20222;-79
2021/11/07 01:23:43;;;;;;;13.03;10.70;;;;;;;9.85;88.67;101183.19;5003696;28;20189;-80
2021/11/07 01:26:55;;;;;;;10.77;9.70;;;;;;;9.84;88.09;101177.22;5011338;28;20183;-79
2021/11/07 01:29:08;;;;;;;11.20;10.17;;;;;;;9.84;88.42;101168.66;5005121;28;20212;-80
2021/11/07 01:31:35;;;;;;;11.57;10.50;;;;;;;9.84;88.24;101158.44;5047253;28;20205;-81
2021/11/07 01:34:01;;;;;;;10.60;9.47;;;;;;;9.85;88.15;101166.16;5037193;28;20233;-82
2021/11/07 01:36:36;;;;;;;11.40;10.03;;;;;;;9.82;88.88;101163.50;5036604;28;20276;-80
2021/11/07 01:39:12;;;;;;;10.33;9.43;;;;;;;9.82;89.10;101160.09;5004046;28;20556;-80
2021/11/07 01:42:42;;;;;;;9.10;8.40;;;;;;;9.84;88.79;101159.31;5017146;28;20707;-79
2021/11/07 01:44:45;;;;;;;8.97;8.17;;;;;;;9.85;88.73;101155.94;5007564;28;20203;-81
2021/11/07 01:47:11;;;;;;;10.10;8.97;;;;;;;9.85;88.65;101148.25;5022476;28;20575;-81
2021/11/07 01:49:38;;;;;;;9.57;8.77;;;;;;;9.85;88.45;101149.94;5019871;28;20242;-79
2021/11/07 01:52:07;;;;;;;8.90;8.20;;;;;;;9.92;87.47;101151.84;5036525;28;20278;-78
2021/11/07 01:54:46;;;;;;;8.00;7.30;;;;;;;9.94;87.39;101170.66;5034804;28;20190;-78
2021/11/07 01:57:12;;;;;;;8.63;7.63;;;;;;;9.94;87.67;101134.84;5036454;28;20210;-78
2021/11/07 01:59:52;;;;;;;9.23;8.33;;;;;;;9.95;87.72;101136.59;5034580;28;20211;-80
2021/11/07 02:02:19;;;;;;;9.53;8.60;;;;;;;9.95;87.77;101136.59;5034422;28;20191;-80
2021/11/07 02:04:45;;;;;;;9.60;8.43;;;;;;;9.97;87.35;101120.47;5033965;28;20218;-80
2021/11/07 02:07:11;;;;;;;9.57;8.67;;;;;;;9.97;87.74;101114.47;5017384;28;20834;-80
2021/11/07 02:09:37;;;;;;;9.47;8.67;;;;;;;9.95;87.89;101105.91;5034776;28;20207;-80
2021/11/07 02:12:04;;;;;;;10.07;9.17;;;;;;;9.94;87.82;101106.69;5036957;28;20213;-80
2021/11/07 02:14:31;;;;;;;9.80;8.90;;;;;;;9.93;88.33;101099.88;5034454;28;20198;-80
2021/11/07 02:16:56;;;;;;;10.80;9.80;;;;;;;9.90;88.30;101092.13;5018057;28;20194;-80
2021/11/07 02:19:22;;;;;;;11.10;10.00;;;;;;;9.89;88.69;101078.47;5046833;22;20230;-77
2021/11/07 02:21:48;;;;;;;10.70;9.70;;;;;;;9.91;88.47;101084.47;5031703;28;20195;-75
2021/11/07 02:24:16;;;;;;;9.70;8.70;;;;;;;9.92;88.54;101082.78;5030852;28;20190;-77
2021/11/07 02:26:44;;;;;;;11.50;10.50;;;;;;;9.89;88.26;101068.22;5030365;28;20185;-77
2021/11/07 02:29:10;;;;;;;10.53;9.53;;;;;;;9.92;88.27;101063.22;5032069;28;20644;-79
2021/11/07 02:31:35;;;;;;;10.93;9.80;;;;;;;9.92;87.83;101070.00;5032232;28;20186;-78
2021/11/07 02:34:00;;;;;;;11.30;10.23;;;;;;;9.93;88.17;101058.94;5032679;28;20234;-79
2021/11/07 02:36:26;;;;;;;10.97;9.97;;;;;;;9.92;88.19;101060.66;5032998;28;20199;-79
2021/11/07 02:38:51;;;;;;;11.50;10.53;;;;;;;9.88;89.24;101048.59;5033297;28;20187;-78
2021/11/07 02:41:16;;;;;;;11.03;10.10;;;;;;;9.90;88.31;101057.16;5032533;28;20260;-79
2021/11/07 02:43:46;;;;;;;11.37;10.37;;;;;;;9.91;88.22;101050.38;5022596;28;20747;-78
2021/11/07 02:46:16;;;;;;;13.13;10.57;;;;;;;9.96;88.01;101047.09;5032275;28;20191;-79
2021/11/07 02:48:43;;;;;;;10.80;9.80;;;;;;;9.96;87.84;101036.84;5029857;28;20190;-78
2021/11/07 02:51:08;;;;;;;11.73;10.40;;;;;;;9.97;87.78;101033.50;5032577;28;20203;-78
2021/11/07 02:53:34;;;;;;;10.40;9.40;;;;;;;9.97;87.87;101019.81;5034418;28;20260;-78
2021/11/07 02:55:59;;;;;;;10.80;9.80;;;;;;;9.97;87.89;101009.59;5032655;28;20213;-79
2021/11/07 02:58:25;;;;;;;12.53;10.30;;;;;;;9.96;87.50;101018.09;5032906;28;20554;-78
2021/11/07 03:00:51;;;;;;;11.33;10.33;;;;;;;9.97;87.49;101007.03;5037967;28;20210;-79
2021/11/07 03:03:17;;;;;;;9.80;9.00;;;;;;;9.99;87.63;101010.47;5036121;28;20193;-79
2021/11/07 03:05:42;;;;;;;9.53;8.43;;;;;;;9.95;87.60;100996.75;5034795;28;20187;-79
2021/11/07 03:08:07;;;;;;;9.43;8.53;;;;;;;9.97;87.66;100992.56;5032750;28;20187;-78
2021/11/07 03:10:33;;;;;;;9.17;8.17;;;;;;;9.95;87.66;100989.09;5033109;28;20256;-78
2021/11/07 03:13:03;;;;;;;9.27;8.40;;;;;;;9.96;87.28;100995.06;5015214;28;20647;-76
2021/11/07 03:15:29;;;;;;;8.23;7.53;;;;;;;9.97;87.62;100987.44;5030740;28;20197;-79
2021/11/07 03:17:54;;;;;;;8.63;7.93;;;;;;;9.96;87.23;100987.41;5032113;28;20186;-77
2021/11/07 03:20:20;;;;;;;9.27;8.47;;;;;;;9.94;87.48;100966.03;5030742;28;20218;-75
2021/11/07 03:22:45;;;;;;;8.30;7.47;;;;;;;9.96;87.80;100982.28;5030623;28;20182;-76
2021/11/07 03:25:10;;;;;;;8.93;7.50;;;;;;;9.99;87.59;100975.53;5030883;28;20555;-75
2021/11/07 03:27:42;;;;;;;7.27;6.57;;;;;;;10.04;87.26;100965.44;5031981;28;20281;-78
2021/11/07 03:30:57;;;;;;;6.83;6.23;;;;;;;10.01;86.83;100973.03;5030913;28;20206;-78
2021/11/07 03:33:36;;;;;;;7.10;6.40;;;;;;;10.01;86.61;100961.13;5029087;28;20313;-78
2021/11/07 03:35:55;;;;;;;7.23;5.90;;;;;;;10.05;86.53;100959.50;5030331;28;20202;-78
2021/11/07 03:38:21;;;;;;;6.13;5.53;;;;;;;10.04;86.75;100963.75;5029731;28;20191;-76
2021/11/07 03:40:46;;;;;;;6.60;5.60;;;;;;;10.06;86.98;100961.25;5030310;28;20253;-78
2021/11/07 03:43:12;;;;;;;5.80;5.00;;;;;;;10.06;86.06;100957.00;5031365;28;20182;-78
2021/11/07 03:45:38;;;;;;;5.23;4.67;;;;;;;10.05;85.97;100947.56;5030146;28;20201;-78
2021/11/07 03:48:03;;;;;;;4.57;4.17;;;;;;;10.05;86.64;100939.06;5031424;28;20194;-76
2021/11/07 03:50:30;;;;;;;4.47;3.90;;;;;;;10.03;86.42;100941.53;5028859;28;20281;-76
2021/11/07 03:52:56;;;;;;;4.00;3.70;;;;;;;10.03;86.67;100933.84;5028642;28;20242;-76
2021/11/07 03:55:22;;;;;;;5.40;3.93;;;;;;;10.04;86.21;100937.28;5028964;28;20233;-76
2021/11/07 03:57:47;;;;;;;3.70;3.40;;;;;;;10.06;86.05;100964.69;5029658;28;20214;-80
2021/11/07 04:00:14;;;;;;;4.13;3.53;;;;;;;10.04;86.04;100952.66;5030881;28;20214;-76
2021/11/07 04:02:40;;;;;;;3.50;3.20;;;;;;;10.01;86.69;100952.56;5028794;28;20182;-75
2021/11/07 04:05:07;;;;;;;3.73;3.00;;;;;;;9.99;86.81;100955.06;5029445;28;20531;-76
2021/11/07 04:07:33;;;;;;;4.30;3.50;;;;;;;9.95;87.83;100968.63;5029003;28;20206;-76
2021/11/07 04:09:59;;;;;;;3.33;3.00;;;;;;;9.94;87.39;100958.34;5013147;28;20316;-78
2021/11/07 04:12:24;;;;;;;4.23;3.00;;;;;;;9.93;87.92;100964.31;5029398;28;20304;-77
2021/11/07 04:14:49;;;;;;;2.90;2.70;;;;;;;9.91;87.45;100959.16;5031433;28;20182;-77
2021/11/07 04:17:15;;;;;;;2.63;2.43;;;;;;;9.91;87.68;100954.03;5029944;28;20659;-77
2021/11/07 04:19:40;;;;;;;3.90;2.70;;;;;;;9.89;88.56;100954.81;5029840;28;20218;-77
2021/11/07 04:22:08;;;;;;;2.87;2.60;;;;;;;9.86;88.50;100947.94;5029454;28;20182;-76
2021/11/07 04:24:34;;;;;;;4.27;2.43;;;;;;;9.84;87.84;100939.38;5030387;28;20194;-76
2021/11/07 04:27:00;;;;;;;4.10;2.67;;;;;;;9.81;88.12;100935.91;5031086;28;20202;-78
2021/11/07 04:29:26;;;;;;;2.93;2.50;;;;;;;9.78;88.07;100936.69;5030163;28;20640;-78
2021/11/07 04:31:52;;;;;;;4.07;2.40;;;;;;;9.81;87.89;100941.00;5030744;28;20532;-77
2021/11/07 04:34:17;;;;;;;2.77;2.30;;;;;;;9.86;87.93;100934.31;5031099;28;20213;-76
2021/11/07 04:36:43;;;;;;;6.60;2.87;;;;;;;9.84;88.08;100933.38;5030194;28;20180;-76
2021/11/07 04:39:08;;;;;;;3.90;2.40;;;;;;;9.87;87.73;100933.47;5012833;28;20201;-78
2021/11/07 04:41:35;;;;;;;2.50;2.13;;;;;;;9.85;87.45;100941.09;5031016;28;20225;-76
2021/11/07 04:44:00;;;;;;;3.63;2.10;;;;;;;9.87;87.42;100934.31;5030668;28;20194;-77
2021/11/07 04:46:26;;;;;;;4.43;2.10;;;;;;;9.90;86.83;100920.78;5030547;28;20206;-77
2021/11/07 04:48:51;;;;;;;2.83;2.20;;;;;;;9.89;87.24;100907.09;5030025;28;20281;-77
2021/11/07 04:51:17;;;;;;;3.93;2.00;;;;;;;9.87;87.18;100901.06;5015120;28;20699;-76
2021/11/07 04:53:43;;;;;;;2.60;2.00;;;;;;;9.86;86.62;100909.56;5010311;28;20211;-78
2021/11/07 04:56:08;;;;;;;5.53;1.97;;;;;;;9.85;86.86;100900.19;5011944;28;20213;-77
2021/11/07 04:58:35;;;;;;;6.70;2.03;;;;;;;9.82;87.01;100901.81;5010418;28;20191;-78
2021/11/07 05:01:00;;;;;;;3.47;1.60;;;;;;;9.84;85.59;100905.25;5041779;28;20221;-77
2021/11/07 05:03:26;;;;;;;5.53;1.80;;;;;;;9.83;86.19;100896.75;5012359;28;20579;-77
2021/11/07 05:05:51;;;;;;;4.20;1.70;;;;;;;9.85;85.47;100894.19;5017554;28;20186;-76
2021/11/07 05:08:18;;;;;;;8.07;1.80;;;;;;;9.87;85.36;100901.06;5032266;28;20217;-76
2021/11/07 05:10:43;;;;;;;4.60;1.80;;;;;;;9.88;85.86;100897.72;5033975;28;20198;-77
2021/11/07 05:13:10;;;;;;;7.73;1.73;;;;;;;9.89;85.73;100904.53;5032653;28;20593;-77
2021/11/07 05:15:36;;;;;;;4.47;1.60;;;;;;;9.94;85.01;100896.97;5033825;28;20204;-77
2021/11/07 05:18:02;;;;;;;6.20;2.23;;;;;;;9.96;85.56;100896.16;5043498;28;20194;-76
2021/11/07 05:20:28;;;;;;;9.00;2.63;;;;;;;9.97;85.46;100905.59;5052843;28;20296;-77
2021/11/07 05:22:54;;;;;;;6.87;2.20;;;;;;;9.94;86.69;100887.59;5053896;28;20209;-77
2021/11/07 05:25:19;;;;;;;5.00;2.50;;;;;;;9.91;87.00;100897.75;5053233;28;20178;-78
2021/11/07 05:27:44;;;;;;;6.10;3.40;;;;;;;9.90;87.68;100888.38;5053886;28;20190;-79
2021/11/07 05:30:12;;;;;;;7.10;4.00;;;;;;;9.89;87.89;100881.53;5053132;28;20217;-79
2021/11/07 05:32:38;;;;;;;7.63;3.93;;;;;;;9.90;88.25;100888.38;5053617;28;20225;-78
2021/11/07 05:35:04;;;;;;;6.20;4.23;;;;;;;9.89;88.75;100880.66;5054864;28;20681;-79
2021/11/07 05:37:29;;;;;;;8.47;4.57;;;;;;;9.90;88.49;100883.25;5054430;28;20186;-78
2021/11/07 05:39:54;;;;;;;7.23;4.30;;;;;;;9.91;88.67;100886.69;5053964;28;20283;-79
2021/11/07 05:42:21;;;;;;;7.03;4.13;;;;;;;9.92;89.13;100880.72;5053846;28;20190;-78
2021/11/07 05:44:47;;;;;;;7.20;4.10;;;;;;;9.92;88.53;100889.28;5054031;28;20198;-77
2021/11/07 05:47:13;;;;;;;9.03;3.80;;;;;;;9.92;88.38;100896.06;5052892;28;20182;-77
2021/11/07 05:49:38;;;;;;;10.13;4.17;;;;;;;9.94;88.02;100881.63;5052585;28;20213;-78
2021/11/07 05:52:04;;;;;;;8.50;3.87;;;;;;;9.94;87.90;100887.59;5053718;28;20268;-77
2021/11/07 05:54:30;;;;;;;6.30;3.23;;;;;;;9.99;87.08;100882.56;5054745;28;20244;-77
2021/11/07 05:56:57;;;;;;;7.43;3.40;;;;;;;9.99;87.50;100878.34;5053177;28;20189;-78
2021/11/07 05:59:23;;;;;;;4.33;2.40;;;;;;;9.98;87.55;100881.75;5053865;28;20702;-78
2021/11/07 06:01:48;;;;;;;6.93;2.77;;;;;;;9.97;86.58;100882.56;5053064;28;20248;-79
2021/11/07 06:04:13;;;;;;;4.07;2.10;;;;;;;9.99;86.15;100885.13;5044861;28;20637;-78
2021/11/07 06:06:39;;;;;;;7.20;2.23;;;;;;;9.94;85.69;100886.72;5032024;28;20285;-77
2021/11/07 06:09:04;;;;;;;7.00;2.20;;;;;;;9.91;86.43;100892.66;5015900;28;20277;-79
2021/11/07 06:11:30;;;;;;;5.93;2.17;;;;;;;9.91;85.65;100884.97;5032465;28;20194;-77
2021/11/07 06:13:55;;;;;;;6.87;1.97;;;;;;;9.93;86.04;100895.25;5031850;28;20214;-78
2021/11/07 06:16:21;;;;;;;4.37;1.80;;;;;;;9.96;84.96;100896.16;5015358;28;20194;-77
2021/11/07 06:18:46;;;;;;;6.73;2.33;;;;;;;9.99;84.79;100892.81;5031946;28;20191;-77
2021/11/07 06:21:12;;;;;;;5.37;2.00;;;;;;;9.99;84.10;100892.81;5015017;28;20214;-78
2021/11/07 06:23:38;;;;;;;7.10;2.03;;;;;;;9.93;84.59;100887.56;5031893;28;20209;-78
2021/11/07 06:26:04;;;;;;;9.33;2.23;;;;;;;9.90;84.25;100900.31;5031478;28;20190;-77
2021/11/07 06:28:30;;;;;;;5.77;1.93;;;;;;;9.83;84.38;100889.06;5032786;28;20194;-77
2021/11/07 06:30:55;;;;;;;9.73;2.70;;;;;;;9.80;84.75;100893.22;5031266;28;20210;-76
2021/11/07 06:33:21;;;;;;;7.77;2.63;;;;;;;9.76;84.35;100902.53;5034495;28;20210;-79
2021/11/07 06:35:46;;;;;;;8.63;2.43;;;;;;;9.69;84.89;100910.91;5032613;28;20252;-77
2021/11/07 06:38:12;;;;;;;10.07;2.20;;;;;;;9.69;84.80;100905.78;5030381;28;20218;-77
2021/11/07 06:40:39;;;;;;;11.23;2.50;;;;;;;9.70;84.81;100909.19;5030516;28;20206;-77
2021/11/07 06:43:04;;;;;;;11.00;2.40;;;;;;;9.71;84.97;100916.03;5031789;28;20175;-78
2021/11/07 06:45:32;;;;;;;7.53;2.63;;;;;;;9.70;84.65;100919.41;5015535;28;20694;-76
2021/11/07 06:47:57;;;;;;;14.00;3.23;;;;;;;9.70;84.98;100919.41;5031544;28;20190;-76
2021/11/07 06:50:24;;;;;;;8.87;2.57;;;;;;;9.66;84.43;100918.50;5030124;28;20214;-77
2021/11/07 06:52:50;;;;;;;10.70;2.80;;;;;;;9.61;84.25;100919.19;5013947;28;20214;-76
2021/11/07 06:55:17;;;;;;;7.00;2.23;;;;;;;9.59;84.62;100908.09;5014260;28;20198;-77
2021/11/07 06:57:43;;;;;;;10.40;2.70;;;;;;;9.58;84.83;100917.44;5032117;28;20278;-77
2021/11/07 07:00:17;;;;;;;12.90;3.03;;;;;;;9.52;85.00;100899.41;5031100;28;20210;-78
2021/11/07 07:02:43;;;;;;;9.30;2.80;;;;;;;9.58;85.15;100902.09;5031171;28;20179;-78
2021/11/07 07:05:09;;;;;;;13.37;2.90;;;;;;;9.57;85.32;100912.28;5032489;28;20198;-77
2021/11/07 07:07:36;;;;;;;14.93;2.53;;;;;;;9.60;85.15;100920.03;5032287;28;20213;-78
2021/11/07 07:10:06;;;;;;;12.73;2.60;;;;;;;9.65;85.25;100916.75;5030524;28;20206;-77
2021/11/07 07:12:42;;;;;;;8.67;2.67;;;;;;;9.65;85.51;100929.53;5030674;28;20214;-76
2021/11/07 07:15:12;;;;;;;13.57;3.07;;;;;;;9.66;84.84;100915.94;5032461;28;20178;-77
2021/11/07 07:30:05;;;;;;;14.80;3.10;;;;;;;9.77;83.41;100923.88;5012809;28;20234;-77
2021/11/07 07:35:10;;;;;;;11.83;3.17;;;;;;;9.78;83.05;100925.59;5029954;28;20244;-78
2021/11/07 07:37:35;;;;;;;12.10;2.80;;;;;;;9.76;83.24;100933.22;5030934;28;20610;-78
2021/11/07 07:40:01;;;;;;;14.73;2.93;;;;;;;9.74;83.15;100919.53;5032373;28;20206;-77
2021/11/07 07:42:26;;;;;;;15.30;3.23;;;;;;;9.86;83.03;100924.91;5014942;28;20201;-77
2021/11/07 07:44:53;;;;;;;14.57;3.47;;;;;;;9.97;82.24;100920.94;5025296;28;20186;-77
2021/11/07 07:47:19;;;;;;;12.40;3.13;;;;;;;10.00;81.94;100928.66;5005023;28;20179;-77
2021/11/07 07:49:47;;;;;;;13.47;2.73;;;;;;;10.14;81.04;100929.88;5023694;28;20195;-77
2021/11/07 07:52:13;;;;;;;7.77;2.10;;;;;;;10.15;80.85;100929.06;5003337;28;20186;-77
2021/11/07 07:54:38;;;;;;;14.30;3.23;;;;;;;10.28;80.82;100933.59;5018886;28;20191;-78
2021/11/07 07:57:03;;;;;;;8.47;2.87;;;;;;;10.46;80.17;100938.25;5022565;28;20603;-77
2021/11/07 07:59:29;;;;;;;10.50;3.13;;;;;;;10.28;81.09;100938.72;5022468;28;20238;-79
2021/11/07 08:01:57;;;;;;;12.50;2.90;;;;;;;10.14;81.83;100944.38;5028259;28;20313;-77
2021/11/07 08:04:23;;;;;;;11.50;2.93;;;;;;;10.09;82.46;100944.25;5032021;28;20179;-78
2021/11/07 08:06:48;;;;;;;12.40;2.90;;;;;;;10.08;82.87;100945.09;5033351;28;20179;-78
2021/11/07 08:09:13;;;;;;;12.10;3.20;;;;;;;10.13;83.71;100942.66;5028120;28;20272;-79
2021/11/07 08:11:39;;;;;;;17.50;3.37;;;;;;;10.14;82.89;100941.81;5033585;28;20190;-78
2021/11/07 08:14:05;;;;;;;12.37;2.70;;;;;;;10.09;82.82;100940.84;5033773;28;20207;-78
2021/11/07 08:16:32;;;;;;;11.47;2.60;;;;;;;10.19;81.72;100935.94;5015688;28;20665;-79
2021/11/07 08:18:57;;;;;;;13.10;2.57;;;;;;;10.22;79.97;100935.16;5035521;28;20250;-79
2021/11/07 08:21:25;;;;;;;10.30;2.67;;;;;;;10.35;79.17;100940.59;5035398;28;20242;-79
2021/11/07 08:23:53;;;;;;;10.67;2.67;;;;;;;10.25;79.19;100938.66;5033067;28;20182;-79
2021/11/07 08:26:20;;;;;;;10.40;2.40;;;;;;;10.33;78.88;100946.50;5033027;28;20229;-78
2021/11/07 08:28:47;;;;;;;10.77;2.60;;;;;;;10.49;79.08;100940.88;5015509;28;20309;-79
2021/11/07 08:31:21;;;;;;;11.40;2.97;;;;;;;10.46;78.73;100930.59;5032879;28;20221;-78
2021/11/07 08:33:47;;;;;;;14.10;3.00;;;;;;;10.40;78.75;100936.44;5031538;28;20255;-77
2021/11/07 08:36:18;;;;;;;14.13;3.37;;;;;;;10.49;78.20;100935.75;5024456;28;20611;-78
2021/11/07 08:38:49;;;;;;;13.63;3.30;;;;;;;10.66;77.70;100930.16;5030285;28;20659;-77
2021/11/07 08:41:17;;;;;;;13.27;2.83;;;;;;;11.20;76.42;100935.47;5029946;28;20598;-78
2021/11/07 09:05:26;;;;;;;10.63;3.60;;;;;;;17.67;53.24;100918.38;5036298;28;20179;-77
2021/11/07 09:10:35;;;;;;;13.77;3.80;;;;;;;17.63;53.32;100908.91;5035965;28;20212;-78
2021/11/07 09:13:03;;;;;;;9.23;3.00;;;;;;;15.99;56.92;100926.91;5035172;28;20214;-76
2021/11/07 09:15:31;;;;;;;15.43;4.03;;;;;;;13.87;63.34;100925.31;5033571;28;20257;-78
2021/11/07 09:17:57;;;;;;;14.00;3.80;;;;;;;13.44;66.39;100930.97;5034724;28;20262;-77
2021/11/07 09:25:47;;;;;;;12.33;3.87;;;;;;;17.91;52.01;100911.25;5031767;28;20240;-76
2021/11/07 09:30:51;;;;;;;14.13;3.73;;;;;;;18.48;49.67;100915.03;5034612;28;20203;-76
2021/11/07 09:33:25;;;;;;;16.43;4.93;;;;;;;19.42;46.24;100905.97;5034052;28;20222;-77
2021/11/07 09:38:35;;;;;;;13.33;2.93;;;;;;;18.36;49.56;100913.44;5033125;28;20226;-75
2021/11/07 09:46:29;;;;;;;12.33;3.97;;;;;;;19.44;47.09;100914.56;5031564;28;20179;-75
2021/11/07 09:48:59;;;;;;;11.47;3.77;;;;;;;19.62;46.35;100923.84;5020984;28;20190;-75
2021/11/07 09:51:31;;;;;;;14.03;3.77;;;;;;;20.16;45.84;100925.50;5030141;28;20237;-77
2021/11/07 09:53:57;;;;;;;13.17;3.53;;;;;;;18.44;48.65;100927.19;5031007;28;20375;-77
2021/11/07 09:56:24;;;;;;;11.63;3.67;;;;;;;17.97;49.55;100931.94;5034577;28;20210;-78
2021/11/07 09:58:52;;;;;;;13.80;3.60;;;;;;;15.82;56.08;100939.81;5033389;28;20698;-78
2021/11/07 10:01:18;;;;;;;11.80;3.20;;;;;;;14.43;59.78;100944.59;5016285;28;20293;-78
2021/11/07 10:03:45;;;;;;;11.57;3.50;;;;;;;14.56;60.21;100938.66;5034345;28;20252;-77
2021/11/07 10:06:29;;;;;;;12.57;3.73;;;;;;;15.82;55.20;100946.69;5034391;28;20197;-78
2021/11/07 10:08:58;;;;;;;14.90;3.43;;;;;;;15.50;55.17;100938.94;5033572;28;20537;-77
2021/11/07 10:11:31;;;;;;;12.03;3.30;;;;;;;16.06;54.24;100942.38;5032687;28;20203;-77
2021/11/07 10:14:14;;;;;;;11.97;3.80;;;;;;;14.87;57.16;100943.91;5032210;28;20218;-77
2021/11/07 10:16:51;;;;;;;14.20;3.20;;;;;;;14.31;59.81;100932.50;5031712;28;20227;-77
2021/11/07 10:19:28;;;;;;;10.40;3.10;;;;;;;13.88;60.94;100934.75;5032226;28;20561;-76
2021/11/07 10:21:54;;;;;;;13.53;3.17;;;;;;;13.12;62.68;100929.78;5031045;28;20181;-75
2021/11/07 10:24:28;;;;;;;10.03;2.37;;;;;;;12.55;61.93;100947.91;5031136;28;20189;-77
2021/11/07 10:26:58;;;;;;;5.07;2.00;;;;;;;12.42;61.19;100931.50;5030999;28;20440;-78
2021/11/07 10:29:51;;;;;;;8.63;2.00;;;;;;;12.11;61.79;100933.59;5032839;28;20711;-78
2021/11/07 10:32:32;;;;;;;11.53;2.30;;;;;;;12.03;62.82;100946.31;5031256;28;20277;-78
2021/11/07 10:35:27;;;;;;;9.90;2.33;;;;;;;11.85;63.22;100951.16;5016499;28;20186;-77
2021/11/07 10:40:46;;;;;;;7.50;1.73;;;;;;;11.39;64.44;100961.44;5031968;28;20578;-77
2021/11/07 10:43:37;;;;;;;7.47;1.90;;;;;;;11.58;65.82;100967.78;5015955;28;20183;-77
2021/11/07 10:46:32;;;;;;;6.00;1.70;;;;;;;14.39;58.11;100948.00;5034300;28;20194;-78
2021/11/07 10:52:11;;;;;;;8.17;2.13;;;;;;;15.67;54.03;100942.41;5033368;28;20220;-78
2021/11/07 10:54:41;;;;;;;6.93;2.50;;;;;;;17.06;51.20;100940.34;5017550;28;20229;-79
2021/11/07 10:57:27;;;;;;;9.67;2.60;;;;;;;19.71;45.01;100928.91;5035155;28;20186;-79
2021/11/07 11:00:19;;;;;;;8.47;2.93;;;;;;;20.48;42.96;100923.16;5034076;28;20206;-78
2021/11/07 11:02:51;;;;;;;9.45;3.17;;;;;;;22.10;40.76;100916.81;5035669;28;20266;-79
2021/11/07 11:05:21;;;;;;;9.10;3.15;;;;;;;21.67;40.72;100918.78;5016664;28;20229;-78
2021/11/07 11:07:57;;;;;;;9.55;3.55;;;;;;;20.83;42.61;100920.72;5033649;28;20198;-79
2021/11/07 11:10:30;;;;;;;13.32;4.00;;;;;;;21.25;41.20;100914.59;5017135;28;20210;-79
2021/11/07 11:16:20;;;;;;;11.32;3.33;;;;;;;20.55;43.69;100911.75;5030421;28;20202;-79
2021/11/07 11:21:42;;;;;;;9.52;3.22;;;;;;;19.38;44.56;100908.63;5032675;28;20186;-77
2021/11/07 11:24:24;;;;;;;7.72;3.22;;;;;;;20.65;42.42;100902.88;5014983;28;20513;-77
2021/11/07 11:32:40;;;;;;;11.43;3.85;;;;;;;21.84;38.61;100893.19;5032588;28;20188;-78
2021/11/07 11:40:11;;;;;;;8.80;3.05;;;;;;;23.09;36.22;100882.63;5034435;28;20198;-78
2021/11/07 11:42:55;;;;;;;7.30;3.03;;;;;;;23.24;35.89;100887.41;5033170;28;20194;-78
2021/11/07 11:45:25;;;;;;;7.55;2.92;;;;;;;22.87;35.79;100885.94;5034718;28;20213;-79
2021/11/07 11:49:13;;;;;;;10.07;3.22;;;;;;;22.46;36.04;100891.53;5033171;28;20194;-79
2021/11/07 11:51:45;;;;;;;8.87;2.60;;;;;;;16.97;47.38;100915.41;5029448;28;20296;-78
2021/11/07 12:02:45;;;;;;;12.20;3.13;;;;;;;14.99;54.04;100940.53;5032364;28;20179;-78
2021/11/07 12:05:51;;;;;;;11.23;3.30;;;;;;;14.47;59.36;100925.72;5032060;28;20206;-78
2021/11/07 12:11:22;;;;;;;15.73;3.47;;;;;;;15.01;57.75;100931.94;5001440;28;20218;-78
2021/11/07 12:13:59;;;;;;;12.10;2.63;;;;;;;14.42;57.03;100925.72;5029637;28;20218;-76
2021/11/07 12:16:47;;;;;;;8.30;2.33;;;;;;;13.67;57.11;100939.75;5030481;28;20233;-77
2021/11/07 12:19:13;;;;;;;7.47;2.13;;;;;;;14.17;56.02;100931.53;5010994;28;20191;-76
2021/11/07 12:22:02;;;;;;;8.10;2.57;;;;;;;16.94;49.00;100915.41;5026697;28;20209;-79
2021/11/07 12:24:37;;;;;;;9.83;2.47;;;;;;;19.66;42.95;100908.16;5030134;28;20179;-79
2021/11/07 12:27:37;;;;;;;6.90;2.53;;;;;;;21.67;38.76;100897.94;5032263;28;20174;-77
2021/11/07 12:30:19;;;;;;;6.05;2.50;;;;;;;20.72;39.67;100894.03;5031890;28;20577;-79
2021/11/07 12:32:48;;;;;;;4.57;2.33;;;;;;;22.13;38.18;100893.25;5033512;28;20207;-78
2021/11/07 12:35:41;;;;;;;6.57;2.63;;;;;;;20.28;40.48;100907.09;5032526;28;20213;-78
2021/11/07 12:41:24;;;;;;;6.00;2.20;;;;;;;22.14;37.77;100889.75;5033893;28;20221;-78
2021/11/07 12:43:52;;;;;;;5.72;2.35;;;;;;;21.78;38.42;100888.97;5016134;28;20194;-77
2021/11/07 12:46:48;;;;;;;7.57;2.50;;;;;;;20.88;38.38;100885.00;5015831;28;20286;-78
2021/11/07 12:49:13;;;;;;;7.63;2.83;;;;;;;21.92;38.19;100886.03;5029424;28;20191;-78
2021/11/07 12:51:51;;;;;;;7.45;2.90;;;;;;;21.81;38.44;100883.69;5029981;28;20260;-79
2021/11/07 12:54:22;;;;;;;8.65;2.65;;;;;;;22.44;37.51;100884.53;5015572;28;20694;-79
2021/11/07 12:56:56;;;;;;;6.03;2.40;;;;;;;22.76;36.32;100885.41;5032658;28;20569;-78
2021/11/07 12:59:52;;;;;;;6.53;2.50;;;;;;;21.79;39.27;100890.69;5032721;28;20313;-79
2021/11/07 13:02:29;;;;;;;7.53;2.53;;;;;;;23.18;36.85;100890.19;5032489;28;20179;-79
2021/11/07 13:07:53;;;;;;;8.67;3.20;;;;;;;20.04;42.64;100902.31;5031871;28;20667;-78
2021/11/07 13:10:36;;;;;;;7.00;2.90;;;;;;;20.19;41.39;100889.94;5032482;28;20222;-79
2021/11/07 13:13:07;;;;;;;11.47;3.30;;;;;;;16.34;50.89;100910.44;5033479;28;20218;-78
2021/11/07 13:15:54;;;;;;;14.87;3.33;;;;;;;16.08;51.81;100909.66;5013988;28;20190;-79
2021/11/07 13:18:37;;;;;;;15.17;3.63;;;;;;;14.78;57.99;100914.69;5032847;28;20262;-78
2021/11/07 13:21:24;;;;;;;12.93;3.37;;;;;;;14.36;59.69;100917.94;5033132;28;20218;-79
2021/11/07 13:26:29;;;;;;;12.83;3.70;;;;;;;13.14;65.62;100933.22;5031444;28;20648;-78
2021/11/07 13:31:38;;;;;;;13.23;3.10;;;;;;;12.85;67.63;100950.84;5035782;28;20179;-79
2021/11/07 13:34:09;;;;;;;16.27;3.80;;;;;;;12.69;69.61;100948.94;5034089;28;20198;-79
2021/11/07 13:36:42;;;;;;;14.77;3.07;;;;;;;12.43;69.90;100947.75;5034967;28;20186;-79
2021/11/07 13:39:09;;;;;;;9.37;2.47;;;;;;;11.96;69.20;100941.94;5034603;28;20209;-80
2021/11/07 13:41:35;;;;;;;9.47;1.90;;;;;;;11.92;69.97;100942.72;5037653;28;20178;-77
2021/11/07 13:44:06;;;;;;;7.67;2.33;;;;;;;11.56;70.88;100946.38;5035157;28;20195;-79
2021/11/07 13:46:35;;;;;;;10.80;2.57;;;;;;;11.71;71.36;100929.56;5035581;28;20266;-79